sensor_id;sensor_type;location;lat;lon;timestamp;pressure;altitude;pressure_sealevel;temperature;humidity
71057;BME280;58380;48.312;9.246;2022-10-31T06:29:27;94017.81;;;2.13;100.00
71057;BME280;58380;48.312;9.246;2022-10-31T06:31:53;94024.69;;;2.28;100.00
71057;BME280;58380;48.312;9.246;2022-10-31T06:34:19;94023.88;;;2.34;100.00
71057;BME280;58380;48.312;9.246;2022-10-31T06:36:46;94025.72;;;2.47;100.00
71057;BME280;58380;48.312;9.246;2022-10-31T06:39:12;94022.72;;;2.56;100.00
71057;BME280;58380;48.312;9.246;2022-10-31T06:41:37;94017.31;;;2.51;100.00
71057;BME280;58380;48.312;9.246;2022-10-31T06:44:05;93997.84;;;2.41;100.00
71057;BME280;58380;48.312;9.246;2022-10-31T06:46:31;94026.16;;;2.64;100.00
71057;BME280;58380;48.312;9.246;2022-10-31T06:48:57;94010.50;;;2.64;100.00
71057;BME280;58380;48.312;9.246;2022-10-31T06:51:22;94013.53;;;2.67;100.00
71057;BME280;58380;48.312;9.246;2022-10-31T06:53:48;94030.97;;;2.93;100.00
71057;BME280;58380;48.312;9.246;2022-10-31T06:56:14;94041.63;;;3.05;100.00
71057;BME280;58380;48.312;9.246;2022-10-31T06:58:39;94016.94;;;3.01;100.00
71057;BME280;58380;48.312;9.246;2022-10-31T07:01:05;94013.13;;;3.03;100.00
71057;BME280;58380;48.312;9.246;2022-10-31T07:03:31;93986.25;;;2.96;100.00
71057;BME280;58380;48.312;9.246;2022-10-31T07:05:56;94019.13;;;3.24;100.00
71057;BME280;58380;48.312;9.246;2022-10-31T07:08:22;94026.16;;;3.30;100.00
71057;BME280;58380;48.312;9.246;2022-10-31T07:10:52;94037.38;;;3.37;100.00
71057;BME280;58380;48.312;9.246;2022-10-31T07:13:19;94036.34;;;3.52;100.00
71057;BME280;58380;48.312;9.246;2022-10-31T07:15:50;94027.28;;;3.61;100.00
71057;BME280;58380;48.312;9.246;2022-10-31T07:18:15;94008.84;;;3.49;100.00
71057;BME280;58380;48.312;9.246;2022-10-31T07:20:40;94003.81;;;3.61;100.00
71057;BME280;58380;48.312;9.246;2022-10-31T07:23:08;93946.84;;;3.38;100.00
71057;BME280;58380;48.312;9.246;2022-10-31T07:25:35;94000.50;;;3.85;100.00
71057;BME280;58380;48.312;9.246;2022-10-31T07:28:01;93995.44;;;3.97;100.00
71057;BME280;58380;48.312;9.246;2022-10-31T07:30:26;94015.16;;;4.31;100.00
71057;BME280;58380;48.312;9.246;2022-10-31T07:32:52;93992.03;;;4.35;100.00
71057;BME280;58380;48.312;9.246;2022-10-31T07:35:20;94021.34;;;4.75;100.00
71057;BME280;58380;48.312;9.246;2022-10-31T07:37:47;94031.50;;;4.90;100.00
71057;BME280;58380;48.312;9.246;2022-10-31T07:40:13;94027.97;;;5.03;100.00
71057;BME280;58380;48.312;9.246;2022-10-31T07:42:42;94014.41;;;5.13;100.00
71057;BME280;58380;48.312;9.246;2022-10-31T07:45:10;94022.09;;;5.33;100.00
71057;BME280;58380;48.312;9.246;2022-10-31T07:47:51;93988.56;;;5.23;100.00
71057;BME280;58380;48.312;9.246;2022-10-31T07:50:35;94012.38;;;5.58;100.00
71057;BME280;58380;48.312;9.246;2022-10-31T07:53:04;94013.91;;;5.66;100.00
71057;BME280;58380;48.312;9.246;2022-10-31T07:55:33;93998.34;;;5.71;100.00
71057;BME280;58380;48.312;9.246;2022-10-31T08:00:27;93948.28;;;5.61;100.00
71057;BME280;58380;48.312;9.246;2022-10-31T08:03:13;94014.59;;;6.17;100.00
71057;BME280;58380;48.312;9.246;2022-10-31T08:05:41;94021.72;;;6.28;100.00
71057;BME280;58380;48.312;9.246;2022-10-31T08:08:07;94030.22;;;6.42;100.00
71057;BME280;58380;48.312;9.246;2022-10-31T08:10:34;94002.88;;;6.50;100.00
71057;BME280;58380;48.312;9.246;2022-10-31T08:13:03;94016.63;;;6.75;100.00
71057;BME280;58380;48.312;9.246;2022-10-31T08:15:31;94010.06;;;6.84;100.00
71057;BME280;58380;48.312;9.246;2022-10-31T08:17:59;94000.25;;;6.91;100.00
71057;BME280;58380;48.312;9.246;2022-10-31T08:20:25;94010.66;;;7.10;100.00
71057;BME280;58380;48.312;9.246;2022-10-31T08:22:58;94005.75;;;7.25;100.00
71057;BME280;58380;48.312;9.246;2022-10-31T08:25:27;94007.72;;;7.42;100.00
71057;BME280;58380;48.312;9.246;2022-10-31T08:27:55;94009.06;;;7.56;100.00
71057;BME280;58380;48.312;9.246;2022-10-31T08:30:22;94003.69;;;7.74;100.00
71057;BME280;58380;48.312;9.246;2022-10-31T08:33:12;94009.75;;;7.87;100.00
71057;BME280;58380;48.312;9.246;2022-10-31T08:35:39;94004.00;;;8.02;100.00
71057;BME280;58380;48.312;9.246;2022-10-31T08:38:05;93996.63;;;8.15;99.56
71057;BME280;58380;48.312;9.246;2022-10-31T08:40:33;93963.25;;;8.16;100.00
71057;BME280;58380;48.312;9.246;2022-10-31T08:43:02;93991.53;;;8.66;98.73
71057;BME280;58380;48.312;9.246;2022-10-31T08:45:30;93990.00;;;8.82;97.28
71057;BME280;58380;48.312;9.246;2022-10-31T08:47:58;93973.72;;;8.85;96.41
71057;BME280;58380;48.312;9.246;2022-10-31T08:50:26;93976.13;;;8.87;96.75
71057;BME280;58380;48.312;9.246;2022-10-31T08:52:53;93978.59;;;8.93;95.57
71057;BME280;58380;48.312;9.246;2022-10-31T08:55:18;93973.72;;;9.02;94.59
71057;BME280;58380;48.312;9.246;2022-10-31T08:57:44;93967.75;;;9.06;94.64
71057;BME280;58380;48.312;9.246;2022-10-31T09:00:10;93972.91;;;9.35;96.14
71057;BME280;58380;48.312;9.246;2022-10-31T09:02:35;93968.06;;;9.44;97.67
71057;BME280;58380;48.312;9.246;2022-10-31T09:05:03;93964.50;;;9.55;95.15
71057;BME280;58380;48.312;9.246;2022-10-31T09:07:29;93965.53;;;9.71;95.40
71057;BME280;58380;48.312;9.246;2022-10-31T09:09:55;93962.19;;;9.81;94.95
71057;BME280;58380;48.312;9.246;2022-10-31T09:12:21;93969.44;;;9.90;94.42
71057;BME280;58380;48.312;9.246;2022-10-31T09:14:47;93973.81;;;10.02;94.63
71057;BME280;58380;48.312;9.246;2022-10-31T09:17:12;93945.03;;;10.00;94.69
71057;BME280;58380;48.312;9.246;2022-10-31T09:19:37;93951.00;;;10.12;93.94
71057;BME280;58380;48.312;9.246;2022-10-31T09:22:03;93954.06;;;10.26;93.41
71057;BME280;58380;48.312;9.246;2022-10-31T09:24:28;93960.31;;;10.42;92.94
71057;BME280;58380;48.312;9.246;2022-10-31T09:26:53;93943.75;;;10.47;92.29
71057;BME280;58380;48.312;9.246;2022-10-31T09:29:19;93948.66;;;10.65;90.97
71057;BME280;58380;48.312;9.246;2022-10-31T09:31:44;93927.03;;;10.68;90.79
71057;BME280;58380;48.312;9.246;2022-10-31T09:34:10;93941.53;;;10.98;93.07
71057;BME280;58380;48.312;9.246;2022-10-31T09:36:37;93889.88;;;10.75;92.40
71057;BME280;58380;48.312;9.246;2022-10-31T09:39:03;93929.53;;;11.17;92.29
71057;BME280;58380;48.312;9.246;2022-10-31T09:48:14;93936.47;;;11.66;89.73
71057;BME280;58380;48.312;9.246;2022-10-31T09:50:49;93951.88;;;11.84;89.85
71057;BME280;58380;48.312;9.246;2022-10-31T09:56:43;93949.13;;;12.06;89.26
71057;BME280;58380;48.312;9.246;2022-10-31T09:59:18;93953.38;;;12.23;88.40
71057;BME280;58380;48.312;9.246;2022-10-31T10:01:59;93957.94;;;12.38;87.20
71057;BME280;58380;48.312;9.246;2022-10-31T10:05:03;93943.16;;;12.57;87.19
71057;BME280;58380;48.312;9.246;2022-10-31T10:07:45;93947.97;;;12.76;88.42
71057;BME280;58380;48.312;9.246;2022-10-31T10:13:35;93949.88;;;13.01;85.94
71057;BME280;58380;48.312;9.246;2022-10-31T10:16:12;93953.56;;;13.20;84.49
71057;BME280;58380;48.312;9.246;2022-10-31T10:25:16;93937.88;;;13.70;85.65
71057;BME280;58380;48.312;9.246;2022-10-31T10:28:08;93934.13;;;13.86;84.18
71057;BME280;58380;48.312;9.246;2022-10-31T10:30:46;93925.53;;;14.10;83.55
71057;BME280;58380;48.312;9.246;2022-10-31T10:33:31;93910.63;;;14.24;81.26
71057;BME280;58380;48.312;9.246;2022-10-31T10:36:10;93908.59;;;14.60;81.14
71057;BME280;58380;48.312;9.246;2022-10-31T10:38:57;93921.41;;;14.87;81.29
71057;BME280;58380;48.312;9.246;2022-10-31T10:41:30;93896.97;;;14.91;81.35
71057;BME280;58380;48.312;9.246;2022-10-31T10:43:57;93908.47;;;15.15;78.42
71057;BME280;58380;48.312;9.246;2022-10-31T10:46:32;93912.81;;;15.35;78.84
71057;BME280;58380;48.312;9.246;2022-10-31T10:52:36;93882.94;;;15.67;75.37
71057;BME280;58380;48.312;9.246;2022-10-31T10:55:39;93891.88;;;16.06;74.85
71057;BME280;58380;48.312;9.246;2022-10-31T10:58:13;93902.03;;;16.23;74.56
71057;BME280;58380;48.312;9.246;2022-10-31T11:00:44;93864.59;;;16.14;73.83
71057;BME280;58380;48.312;9.246;2022-10-31T11:03:16;93887.00;;;16.32;74.00
71057;BME280;58380;48.312;9.246;2022-10-31T11:05:48;93895.88;;;16.46;73.68
71057;BME280;58380;48.312;9.246;2022-10-31T11:08:27;93893.69;;;16.67;72.44
71057;BME280;58380;48.312;9.246;2022-10-31T11:14:00;93886.50;;;17.06;69.93
71057;BME280;58380;48.312;9.246;2022-10-31T11:16:39;93882.28;;;17.18;68.12
71057;BME280;58380;48.312;9.246;2022-10-31T11:19:17;93885.47;;;17.34;68.71
71057;BME280;58380;48.312;9.246;2022-10-31T11:21:47;93870.97;;;17.40;66.58
71057;BME280;58380;48.312;9.246;2022-10-31T11:24:16;93852.56;;;17.39;64.89
71057;BME280;58380;48.312;9.246;2022-10-31T11:26:45;93868.22;;;17.59;64.48
71057;BME280;58380;48.312;9.246;2022-10-31T11:31:46;93863.91;;;17.91;63.39
71057;BME280;58380;48.312;9.246;2022-10-31T11:34:34;93855.78;;;17.96;63.44
71057;BME280;58380;48.312;9.246;2022-10-31T11:37:24;93847.88;;;18.05;62.87
71057;BME280;58380;48.312;9.246;2022-10-31T11:39:54;93849.06;;;18.13;64.96
71057;BME280;58380;48.312;9.246;2022-10-31T11:42:42;93846.22;;;17.95;63.91
71057;BME280;58380;48.312;9.246;2022-10-31T11:45:17;93843.44;;;17.86;65.66
71057;BME280;58380;48.312;9.246;2022-10-31T11:48:00;93838.19;;;17.81;65.11
71057;BME280;58380;48.312;9.246;2022-10-31T11:50:40;93831.06;;;17.91;63.48
71057;BME280;58380;48.312;9.246;2022-10-31T11:53:16;93844.22;;;18.01;63.53
71057;BME280;58380;48.312;9.246;2022-10-31T11:55:45;93812.28;;;17.82;63.63
71057;BME280;58380;48.312;9.246;2022-10-31T11:58:38;93839.28;;;18.08;60.65
71057;BME280;58380;48.312;9.246;2022-10-31T12:01:03;93798.72;;;17.92;59.28
71057;BME280;58380;48.312;9.246;2022-10-31T12:03:41;93793.38;;;17.92;61.84
71057;BME280;58380;48.312;9.246;2022-10-31T12:06:21;93794.66;;;17.67;60.15
71057;BME280;58380;48.312;9.246;2022-10-31T12:08:50;93823.56;;;17.65;62.22
71057;BME280;58380;48.312;9.246;2022-10-31T12:11:42;93835.91;;;17.61;60.32
71057;BME280;58380;48.312;9.246;2022-10-31T12:17:20;93815.91;;;17.44;59.68
71057;BME280;58380;48.312;9.246;2022-10-31T12:20:19;93808.13;;;17.48;59.45
71057;BME280;58380;48.312;9.246;2022-10-31T12:23:18;93810.38;;;17.41;59.16
71057;BME280;58380;48.312;9.246;2022-10-31T12:35:29;93801.56;;;17.13;61.86
71057;BME280;58380;48.312;9.246;2022-10-31T12:38:18;93780.59;;;17.06;58.67
71057;BME280;58380;48.312;9.246;2022-10-31T12:43:46;93794.66;;;17.39;57.63
71057;BME280;58380;48.312;9.246;2022-10-31T12:58:20;93776.78;;;17.40;60.87
71057;BME280;58380;48.312;9.246;2022-10-31T13:00:53;93764.91;;;17.46;59.52
71057;BME280;58380;48.312;9.246;2022-10-31T13:03:38;93765.09;;;17.50;57.54
71057;BME280;58380;48.312;9.246;2022-10-31T13:06:19;93760.38;;;17.46;58.59
71057;BME280;58380;48.312;9.246;2022-10-31T13:08:57;93755.25;;;17.50;59.15
71057;BME280;58380;48.312;9.246;2022-10-31T13:11:31;93755.91;;;17.56;59.63
71057;BME280;58380;48.312;9.246;2022-10-31T13:14:07;93760.38;;;17.46;57.92
71057;BME280;58380;48.312;9.246;2022-10-31T13:16:46;93746.06;;;17.42;58.92
71057;BME280;58380;48.312;9.246;2022-10-31T13:19:21;93746.91;;;17.52;58.09
71057;BME280;58380;48.312;9.246;2022-10-31T13:24:25;93715.88;;;17.42;57.40
71057;BME280;58380;48.312;9.246;2022-10-31T13:26:58;93730.69;;;17.62;55.92
71057;BME280;58380;48.312;9.246;2022-10-31T13:29:33;93723.84;;;17.69;58.55
71057;BME280;58380;48.312;9.246;2022-10-31T13:32:06;93731.59;;;17.85;58.54
71057;BME280;58380;48.312;9.246;2022-10-31T13:40:31;93687.44;;;18.24;52.84
71057;BME280;58380;48.312;9.246;2022-10-31T13:43:11;93724.19;;;18.72;54.28
71057;BME280;58380;48.312;9.246;2022-10-31T13:45:54;93718.84;;;18.72;55.17
71057;BME280;58380;48.312;9.246;2022-10-31T13:50:57;93708.38;;;18.75;53.83
71057;BME280;58380;48.312;9.246;2022-10-31T13:53:59;93704.97;;;18.61;49.44
71057;BME280;58380;48.312;9.246;2022-10-31T13:56:26;93703.41;;;18.38;47.80
71057;BME280;58380;48.312;9.246;2022-10-31T14:01:36;93698.31;;;18.05;50.09
71057;BME280;58380;48.312;9.246;2022-10-31T14:04:19;93664.88;;;17.57;49.45
71057;BME280;58380;48.312;9.246;2022-10-31T14:07:07;93693.31;;;17.76;49.53
71057;BME280;58380;48.312;9.246;2022-10-31T14:09:39;93709.44;;;17.71;50.87
71057;BME280;58380;48.312;9.246;2022-10-31T14:12:43;93699.66;;;17.66;49.79
71057;BME280;58380;48.312;9.246;2022-10-31T14:15:18;93693.63;;;17.60;49.61
71057;BME280;58380;48.312;9.246;2022-10-31T14:18:00;93690.31;;;17.27;49.72
71057;BME280;58380;48.312;9.246;2022-10-31T14:28:45;93698.00;;;16.87;53.19
71057;BME280;58380;48.312;9.246;2022-10-31T14:33:53;93690.81;;;16.88;51.41
71057;BME280;58380;48.312;9.246;2022-10-31T14:36:23;93693.16;;;16.89;53.00
71057;BME280;58380;48.312;9.246;2022-10-31T14:39:16;93666.53;;;16.56;53.16
71057;BME280;58380;48.312;9.246;2022-10-31T14:42:11;93694.38;;;16.64;53.84
71057;BME280;58380;48.312;9.246;2022-10-31T14:50:44;93677.56;;;16.50;54.33
71057;BME280;58380;48.312;9.246;2022-10-31T14:53:20;93661.34;;;16.32;55.63
71057;BME280;58380;48.312;9.246;2022-10-31T14:55:49;93684.53;;;16.32;56.44
71057;BME280;58380;48.312;9.246;2022-10-31T14:58:47;93677.56;;;16.36;56.13
71057;BME280;58380;48.312;9.246;2022-10-31T15:01:36;93677.22;;;16.24;56.76
71057;BME280;58380;48.312;9.246;2022-10-31T15:04:15;93677.13;;;16.15;57.19
71057;BME280;58380;48.312;9.246;2022-10-31T15:06:48;93684.59;;;16.13;57.83
71057;BME280;58380;48.312;9.246;2022-10-31T15:09:25;93685.75;;;16.07;58.63
71057;BME280;58380;48.312;9.246;2022-10-31T15:11:53;93678.13;;;16.00;59.09
71057;BME280;58380;48.312;9.246;2022-10-31T15:14:24;93634.91;;;15.51;59.48
71057;BME280;58380;48.312;9.246;2022-10-31T15:16:53;93679.91;;;15.67;59.37
71057;BME280;58380;48.312;9.246;2022-10-31T15:19:24;93683.81;;;15.56;60.28
71057;BME280;58380;48.312;9.246;2022-10-31T15:21:54;93667.75;;;15.42;61.13
71057;BME280;58380;48.312;9.246;2022-10-31T15:24:24;93686.16;;;15.38;61.58
71057;BME280;58380;48.312;9.246;2022-10-31T15:26:59;93674.13;;;15.22;62.53
71057;BME280;58380;48.312;9.246;2022-10-31T15:29:26;93609.59;;;14.73;63.21
71057;BME280;58380;48.312;9.246;2022-10-31T15:32:09;93642.66;;;14.86;63.94
71057;BME280;58380;48.312;9.246;2022-10-31T15:34:44;93667.88;;;14.88;64.29
71057;BME280;58380;48.312;9.246;2022-10-31T15:37:14;93669.00;;;14.82;65.22
71057;BME280;58380;48.312;9.246;2022-10-31T15:39:42;93665.13;;;14.70;66.05
71057;BME280;58380;48.312;9.246;2022-10-31T15:42:21;93678.03;;;14.52;67.00
71057;BME280;58380;48.312;9.246;2022-10-31T15:45:05;93643.25;;;14.24;67.48
71057;BME280;58380;48.312;9.246;2022-10-31T15:48:02;93664.25;;;14.21;68.06
71057;BME280;58380;48.312;9.246;2022-10-31T15:50:46;93662.75;;;14.10;68.83
71057;BME280;58380;48.312;9.246;2022-10-31T15:53:27;93662.56;;;14.01;68.77
71057;BME280;58380;48.312;9.246;2022-10-31T15:56:04;93623.25;;;13.74;68.56
71057;BME280;58380;48.312;9.246;2022-10-31T15:58:35;93669.00;;;13.90;68.76
71057;BME280;58380;48.312;9.246;2022-10-31T16:01:20;93659.34;;;13.70;69.74
71057;BME280;58380;48.312;9.246;2022-10-31T16:06:33;93659.31;;;13.25;71.37
71057;BME280;58380;48.312;9.246;2022-10-31T16:08:59;93653.56;;;13.03;71.57
71057;BME280;58380;48.312;9.246;2022-10-31T16:11:37;93672.13;;;13.03;72.16
71057;BME280;58380;48.312;9.246;2022-10-31T16:14:16;93667.94;;;12.91;72.60
71057;BME280;58380;48.312;9.246;2022-10-31T16:16:49;93666.41;;;12.75;73.40
71057;BME280;58380;48.312;9.246;2022-10-31T16:19:21;93653.50;;;12.58;73.80
71057;BME280;58380;48.312;9.246;2022-10-31T16:22:11;93666.47;;;12.55;74.27
71057;BME280;58380;48.312;9.246;2022-10-31T16:27:24;93652.25;;;12.09;75.84
71057;BME280;58380;48.312;9.246;2022-10-31T16:29:55;93672.88;;;12.02;76.76
71057;BME280;58380;48.312;9.246;2022-10-31T16:32:30;93649.81;;;11.57;77.57
71057;BME280;58380;48.312;9.246;2022-10-31T16:35:23;93680.50;;;11.63;77.89
71057;BME280;58380;48.312;9.246;2022-10-31T16:37:57;93672.28;;;11.54;77.87
71057;BME280;58380;48.312;9.246;2022-10-31T16:40:23;93637.38;;;11.32;77.81
71057;BME280;58380;48.312;9.246;2022-10-31T16:42:49;93667.25;;;11.48;78.06
71057;BME280;58380;48.312;9.246;2022-10-31T16:45:17;93673.84;;;11.40;78.71
71057;BME280;58380;48.312;9.246;2022-10-31T16:47:45;93670.09;;;11.26;79.98
71057;BME280;58380;48.312;9.246;2022-10-31T16:50:13;93669.84;;;11.17;79.97
71057;BME280;58380;48.312;9.246;2022-10-31T16:52:41;93624.47;;;10.62;80.33
71057;BME280;58380;48.312;9.246;2022-10-31T16:55:11;93679.94;;;10.72;80.68
71057;BME280;58380;48.312;9.246;2022-10-31T16:57:38;93627.72;;;10.27;81.10
71057;BME280;58380;48.312;9.246;2022-10-31T17:00:12;93615.25;;;10.17;81.35
71057;BME280;58380;48.312;9.246;2022-10-31T17:02:43;93694.13;;;10.56;82.30
71057;BME280;58380;48.312;9.246;2022-10-31T17:05:13;93684.28;;;10.41;81.88
71057;BME280;58380;48.312;9.246;2022-10-31T17:07:40;93675.41;;;10.20;81.29
71057;BME280;58380;48.312;9.246;2022-10-31T17:10:07;93688.00;;;10.13;82.11
71057;BME280;58380;48.312;9.246;2022-10-31T17:12:33;93674.38;;;9.84;83.20
71057;BME280;58380;48.312;9.246;2022-10-31T17:15:00;93653.91;;;9.64;83.75
71057;BME280;58380;48.312;9.246;2022-10-31T17:17:27;93693.00;;;9.77;83.45
71057;BME280;58380;48.312;9.246;2022-10-31T17:19:52;93689.78;;;9.70;84.60
71057;BME280;58380;48.312;9.246;2022-10-31T17:22:18;93625.88;;;9.25;84.72
71057;BME280;58380;48.312;9.246;2022-10-31T17:24:43;93662.16;;;9.45;84.83
71057;BME280;58380;48.312;9.246;2022-10-31T17:27:08;93669.22;;;9.40;84.05
71057;BME280;58380;48.312;9.246;2022-10-31T17:29:34;93673.16;;;9.37;84.59
71057;BME280;58380;48.312;9.246;2022-10-31T17:32:00;93652.13;;;9.15;85.47
71057;BME280;58380;48.312;9.246;2022-10-31T17:34:27;93651.50;;;9.08;86.20
71057;BME280;58380;48.312;9.246;2022-10-31T17:36:53;93652.25;;;9.03;86.23
71057;BME280;58380;48.312;9.246;2022-10-31T17:39:19;93676.88;;;9.14;86.19
71057;BME280;58380;48.312;9.246;2022-10-31T17:41:45;93669.34;;;9.01;86.36
71057;BME280;58380;48.312;9.246;2022-10-31T17:44:13;93661.88;;;8.93;88.49
71057;BME280;58380;48.312;9.246;2022-10-31T17:46:39;93633.44;;;8.68;89.27
71057;BME280;58380;48.312;9.246;2022-10-31T17:49:04;93628.97;;;8.68;88.25
71057;BME280;58380;48.312;9.246;2022-10-31T17:51:32;93596.94;;;8.32;86.12
71057;BME280;58380;48.312;9.246;2022-10-31T17:53:57;93635.31;;;8.50;87.13
71057;BME280;58380;48.312;9.246;2022-10-31T17:56:23;93601.44;;;8.15;88.71
71057;BME280;58380;48.312;9.246;2022-10-31T17:58:49;93645.56;;;8.47;89.32
71057;BME280;58380;48.312;9.246;2022-10-31T18:01:16;93654.34;;;8.57;88.65
71057;BME280;58380;48.312;9.246;2022-10-31T18:03:43;93655.72;;;8.60;88.75
71057;BME280;58380;48.312;9.246;2022-10-31T18:06:10;93602.91;;;8.28;88.88
71057;BME280;58380;48.312;9.246;2022-10-31T18:08:39;93663.50;;;8.72;87.99
71057;BME280;58380;48.312;9.246;2022-10-31T18:11:14;93624.03;;;8.33;87.70
71057;BME280;58380;48.312;9.246;2022-10-31T18:13:41;93635.34;;;8.33;88.51
71057;BME280;58380;48.312;9.246;2022-10-31T18:16:09;93682.44;;;8.52;88.36
71057;BME280;58380;48.312;9.246;2022-10-31T18:18:36;93674.41;;;8.41;88.33
71057;BME280;58380;48.312;9.246;2022-10-31T18:21:01;93629.75;;;8.08;88.60
71057;BME280;58380;48.312;9.246;2022-10-31T18:23:27;93651.25;;;8.05;89.29
71057;BME280;58380;48.312;9.246;2022-10-31T18:25:53;93662.34;;;8.07;89.98
71057;BME280;58380;48.312;9.246;2022-10-31T18:28:19;93670.44;;;8.05;91.28
71057;BME280;58380;48.312;9.246;2022-10-31T18:30:45;93608.69;;;7.69;90.30
71057;BME280;58380;48.312;9.246;2022-10-31T18:33:10;93663.22;;;7.95;89.79
71057;BME280;58380;48.312;9.246;2022-10-31T18:35:37;93672.16;;;7.94;91.56
71057;BME280;58380;48.312;9.246;2022-10-31T18:38:04;93685.66;;;8.03;91.79
71057;BME280;58380;48.312;9.246;2022-10-31T18:40:32;93673.25;;;7.98;91.29
71057;BME280;58380;48.312;9.246;2022-10-31T18:43:00;93682.88;;;7.93;89.38
71057;BME280;58380;48.312;9.246;2022-10-31T18:45:26;93593.16;;;7.33;90.67
71057;BME280;58380;48.312;9.246;2022-10-31T18:47:52;93657.00;;;7.68;91.08
71057;BME280;58380;48.312;9.246;2022-10-31T18:50:18;93672.28;;;7.71;91.58
71057;BME280;58380;48.312;9.246;2022-10-31T18:52:43;93669.81;;;7.81;91.60
71057;BME280;58380;48.312;9.246;2022-10-31T18:55:09;93579.00;;;7.18;90.26
71057;BME280;58380;48.312;9.246;2022-10-31T18:57:35;93631.78;;;7.50;90.75
71057;BME280;58380;48.312;9.246;2022-10-31T19:00:01;93630.25;;;7.37;93.96
71057;BME280;58380;48.312;9.246;2022-10-31T19:02:28;93646.41;;;7.46;96.17
71057;BME280;58380;48.312;9.246;2022-10-31T19:04:53;93637.09;;;7.55;97.61
71057;BME280;58380;48.312;9.246;2022-10-31T19:07:19;93630.44;;;7.64;97.43
71057;BME280;58380;48.312;9.246;2022-10-31T19:09:44;93630.72;;;7.68;94.25
71057;BME280;58380;48.312;9.246;2022-10-31T19:12:10;93578.94;;;7.29;92.77
71057;BME280;58380;48.312;9.246;2022-10-31T19:14:35;93597.69;;;7.38;95.42
71057;BME280;58380;48.312;9.246;2022-10-31T19:17:01;93555.69;;;7.04;94.88
71057;BME280;58380;48.312;9.246;2022-10-31T19:19:26;93579.13;;;7.11;94.68
71057;BME280;58380;48.312;9.246;2022-10-31T19:21:51;93646.03;;;7.54;94.18
71057;BME280;58380;48.312;9.246;2022-10-31T19:24:17;93621.66;;;7.42;93.76
71057;BME280;58380;48.312;9.246;2022-10-31T19:26:42;93629.38;;;7.48;95.60
71057;BME280;58380;48.312;9.246;2022-10-31T19:29:08;93633.03;;;7.47;97.62
71057;BME280;58380;48.312;9.246;2022-10-31T19:31:34;93650.41;;;7.65;96.42
71057;BME280;58380;48.312;9.246;2022-10-31T19:33:59;93620.47;;;7.32;94.39
71057;BME280;58380;48.312;9.246;2022-10-31T19:36:25;93631.19;;;7.31;97.57
71057;BME280;58380;48.312;9.246;2022-10-31T19:38:51;93653.66;;;7.55;97.93
71057;BME280;58380;48.312;9.246;2022-10-31T19:41:23;93656.06;;;7.57;97.42
71057;BME280;58380;48.312;9.246;2022-10-31T19:43:50;93642.59;;;7.53;100.00
71057;BME280;58380;48.312;9.246;2022-10-31T19:46:18;93678.44;;;7.76;99.60
71057;BME280;58380;48.312;9.246;2022-10-31T19:48:45;93690.53;;;7.77;95.19
71057;BME280;58380;48.312;9.246;2022-10-31T19:51:12;93669.63;;;7.37;93.26
71057;BME280;58380;48.312;9.246;2022-10-31T19:53:42;93684.03;;;7.34;93.71
71057;BME280;58380;48.312;9.246;2022-10-31T19:56:14;93678.88;;;7.40;95.12
71057;BME280;58380;48.312;9.246;2022-10-31T19:58:41;93676.06;;;7.29;96.76
71057;BME280;58380;48.312;9.246;2022-10-31T20:01:15;93660.31;;;7.29;98.29
71057;BME280;58380;48.312;9.246;2022-10-31T20:03:43;93650.91;;;7.33;98.42
71057;BME280;58380;48.312;9.246;2022-10-31T20:06:15;93683.91;;;7.58;97.26
71057;BME280;58380;48.312;9.246;2022-10-31T20:08:45;93676.38;;;7.62;96.97
71057;BME280;58380;48.312;9.246;2022-10-31T20:11:11;93668.06;;;7.53;98.42
71057;BME280;58380;48.312;9.246;2022-10-31T20:13:36;93676.03;;;7.75;100.00
71057;BME280;58380;48.312;9.246;2022-10-31T20:16:05;93665.59;;;7.63;100.00
71057;BME280;58380;48.312;9.246;2022-10-31T20:18:32;93694.81;;;7.84;100.00
71057;BME280;58380;48.312;9.246;2022-10-31T20:21:07;93685.44;;;7.88;100.00
71057;BME280;58380;48.312;9.246;2022-10-31T20:23:38;93703.69;;;7.94;97.68
71057;BME280;58380;48.312;9.246;2022-10-31T20:26:06;93709.66;;;7.90;96.08
71057;BME280;58380;48.312;9.246;2022-10-31T20:28:34;93703.97;;;7.81;96.19
71057;BME280;58380;48.312;9.246;2022-10-31T20:31:00;93678.28;;;7.66;96.65
71057;BME280;58380;48.312;9.246;2022-10-31T20:33:31;93690.38;;;7.67;98.54
71057;BME280;58380;48.312;9.246;2022-10-31T20:35:56;93719.91;;;7.74;100.00
71057;BME280;58380;48.312;9.246;2022-10-31T20:38:22;93688.69;;;7.61;100.00
71057;BME280;58380;48.312;9.246;2022-10-31T20:40:47;93666.78;;;7.55;100.00
71057;BME280;58380;48.312;9.246;2022-10-31T20:43:13;93694.91;;;7.72;98.91
71057;BME280;58380;48.312;9.246;2022-10-31T20:45:40;93723.03;;;7.88;98.78
71057;BME280;58380;48.312;9.246;2022-10-31T20:48:06;93709.72;;;7.78;99.24
71057;BME280;58380;48.312;9.246;2022-10-31T20:50:31;93675.47;;;7.56;100.00
71057;BME280;58380;48.312;9.246;2022-10-31T20:52:57;93710.59;;;7.84;100.00
71057;BME280;58380;48.312;9.246;2022-10-31T20:55:22;93680.66;;;7.68;100.00
71057;BME280;58380;48.312;9.246;2022-10-31T20:57:48;93684.22;;;7.78;100.00
71057;BME280;58380;48.312;9.246;2022-10-31T21:00:14;93715.38;;;8.04;100.00
71057;BME280;58380;48.312;9.246;2022-10-31T21:02:41;93710.38;;;8.02;100.00
71057;BME280;58380;48.312;9.246;2022-10-31T21:05:08;93703.75;;;7.99;99.41
71057;BME280;58380;48.312;9.246;2022-10-31T21:07:35;93681.69;;;7.84;99.16
71057;BME280;58380;48.312;9.246;2022-10-31T21:10:00;93720.97;;;8.07;99.48
71057;BME280;58380;48.312;9.246;2022-10-31T21:12:26;93695.63;;;7.84;98.74
71057;BME280;58380;48.312;9.246;2022-10-31T21:14:51;93717.84;;;7.93;98.49
71057;BME280;58380;48.312;9.246;2022-10-31T21:17:17;93657.63;;;7.58;98.58
71057;BME280;58380;48.312;9.246;2022-10-31T21:19:42;93632.63;;;7.39;98.26
71057;BME280;58380;48.312;9.246;2022-10-31T21:22:08;93725.50;;;7.95;98.87
71057;BME280;58380;48.312;9.246;2022-10-31T21:24:33;93617.09;;;7.20;99.95
71057;BME280;58380;48.312;9.246;2022-10-31T21:26:58;93713.63;;;7.92;100.00